sensor_id;sensor_type;location;lat;lon;timestamp;temperature;humidity
12578;DHT22;6354;51.026;8.968;2023-03-01T00:00:02;-0.60;99.90
12578;DHT22;6354;51.026;8.968;2023-03-01T00:02:31;-0.70;99.90
12578;DHT22;6354;51.026;8.968;2023-03-01T00:04:59;-0.60;99.90
12578;DHT22;6354;51.026;8.968;2023-03-01T00:07:27;-0.70;99.90
12578;DHT22;6354;51.026;8.968;2023-03-01T00:09:55;-0.70;99.90
12578;DHT22;6354;51.026;8.968;2023-03-01T00:12:23;-0.70;99.90
12578;DHT22;6354;51.026;8.968;2023-03-01T00:14:52;-0.70;99.90
12578;DHT22;6354;51.026;8.968;2023-03-01T00:17:20;-0.80;99.90
12578;DHT22;6354;51.026;8.968;2023-03-01T00:19:48;-0.70;99.90
12578;DHT22;6354;51.026;8.968;2023-03-01T00:22:16;-0.70;99.90
12578;DHT22;6354;51.026;8.968;2023-03-01T00:24:44;-0.70;99.90
12578;DHT22;6354;51.026;8.968;2023-03-01T00:27:12;-0.70;99.90
12578;DHT22;6354;51.026;8.968;2023-03-01T00:29:40;-0.70;99.90
12578;DHT22;6354;51.026;8.968;2023-03-01T00:32:10;-0.70;99.90
12578;DHT22;6354;51.026;8.968;2023-03-01T00:34:38;-0.70;99.90
12578;DHT22;6354;51.026;8.968;2023-03-01T00:37:06;-0.70;99.90
12578;DHT22;6354;51.026;8.968;2023-03-01T00:39:34;-0.70;99.90
12578;DHT22;6354;51.026;8.968;2023-03-01T00:42:02;-0.70;99.90
12578;DHT22;6354;51.026;8.968;2023-03-01T00:44:30;-0.80;99.90
12578;DHT22;6354;51.026;8.968;2023-03-01T00:46:57;-0.80;99.90
12578;DHT22;6354;51.026;8.968;2023-03-01T00:49:27;-0.90;99.90
12578;DHT22;6354;51.026;8.968;2023-03-01T00:51:55;-0.90;99.90
12578;DHT22;6354;51.026;8.968;2023-03-01T00:54:23;-0.90;99.90
12578;DHT22;6354;51.026;8.968;2023-03-01T00:56:51;-0.90;99.90
12578;DHT22;6354;51.026;8.968;2023-03-01T00:59:19;-1.00;99.90
12578;DHT22;6354;51.026;8.968;2023-03-01T01:01:47;-1.00;99.90
12578;DHT22;6354;51.026;8.968;2023-03-01T01:04:15;-1.00;99.90
12578;DHT22;6354;51.026;8.968;2023-03-01T01:06:45;-1.00;99.90
12578;DHT22;6354;51.026;8.968;2023-03-01T01:09:15;-1.10;99.90
12578;DHT22;6354;51.026;8.968;2023-03-01T01:11:45;-1.10;99.90
12578;DHT22;6354;51.026;8.968;2023-03-01T01:14:14;-1.00;99.90
12578;DHT22;6354;51.026;8.968;2023-03-01T01:16:43;-1.10;99.90
12578;DHT22;6354;51.026;8.968;2023-03-01T01:19:11;-1.00;99.90
12578;DHT22;6354;51.026;8.968;2023-03-01T01:21:40;-1.00;99.90
12578;DHT22;6354;51.026;8.968;2023-03-01T01:24:11;-1.00;99.90
12578;DHT22;6354;51.026;8.968;2023-03-01T01:26:40;-1.10;99.90
12578;DHT22;6354;51.026;8.968;2023-03-01T01:29:09;-1.10;99.90
12578;DHT22;6354;51.026;8.968;2023-03-01T01:31:39;-1.10;99.90
12578;DHT22;6354;51.026;8.968;2023-03-01T01:34:10;-1.10;99.90
12578;DHT22;6354;51.026;8.968;2023-03-01T01:36:40;-1.20;99.90
12578;DHT22;6354;51.026;8.968;2023-03-01T01:39:08;-1.10;99.90
12578;DHT22;6354;51.026;8.968;2023-03-01T01:41:41;-1.10;99.90
12578;DHT22;6354;51.026;8.968;2023-03-01T01:44:13;-1.10;99.90
12578;DHT22;6354;51.026;8.968;2023-03-01T01:46:42;-1.10;99.90
12578;DHT22;6354;51.026;8.968;2023-03-01T01:49:19;-1.10;99.90
12578;DHT22;6354;51.026;8.968;2023-03-01T01:52:05;-1.10;99.90
12578;DHT22;6354;51.026;8.968;2023-03-01T01:54:40;-1.20;99.90
12578;DHT22;6354;51.026;8.968;2023-03-01T01:57:14;-1.20;99.90
12578;DHT22;6354;51.026;8.968;2023-03-01T01:59:47;-1.20;99.90
12578;DHT22;6354;51.026;8.968;2023-03-01T02:02:17;-1.20;99.90
12578;DHT22;6354;51.026;8.968;2023-03-01T02:04:46;-1.30;99.90
12578;DHT22;6354;51.026;8.968;2023-03-01T02:07:17;-1.30;99.90
12578;DHT22;6354;51.026;8.968;2023-03-01T02:09:47;-1.40;99.90
12578;DHT22;6354;51.026;8.968;2023-03-01T02:12:19;-1.40;99.90
12578;DHT22;6354;51.026;8.968;2023-03-01T02:14:48;-1.40;99.90
12578;DHT22;6354;51.026;8.968;2023-03-01T02:17:17;-1.40;99.90
12578;DHT22;6354;51.026;8.968;2023-03-01T02:19:57;-1.40;99.90
12578;DHT22;6354;51.026;8.968;2023-03-01T02:22:30;-1.50;99.90
12578;DHT22;6354;51.026;8.968;2023-03-01T02:25:07;-1.60;99.90
12578;DHT22;6354;51.026;8.968;2023-03-01T02:27:49;-1.60;99.90
12578;DHT22;6354;51.026;8.968;2023-03-01T02:30:23;-1.60;99.90
12578;DHT22;6354;51.026;8.968;2023-03-01T02:32:54;-1.60;99.90
12578;DHT22;6354;51.026;8.968;2023-03-01T02:35:31;-1.50;99.90
12578;DHT22;6354;51.026;8.968;2023-03-01T02:38:01;-1.50;99.90
12578;DHT22;6354;51.026;8.968;2023-03-01T02:40:30;-1.50;99.90
12578;DHT22;6354;51.026;8.968;2023-03-01T02:42:59;-1.50;99.90
12578;DHT22;6354;51.026;8.968;2023-03-01T02:45:28;-1.50;99.90
12578;DHT22;6354;51.026;8.968;2023-03-01T02:47:57;-1.60;99.90
12578;DHT22;6354;51.026;8.968;2023-03-01T02:50:46;-1.60;99.90
12578;DHT22;6354;51.026;8.968;2023-03-01T02:53:25;-1.60;99.90
12578;DHT22;6354;51.026;8.968;2023-03-01T02:55:55;-1.70;99.90
12578;DHT22;6354;51.026;8.968;2023-03-01T02:58:23;-1.70;99.90
12578;DHT22;6354;51.026;8.968;2023-03-01T03:00:53;-1.70;99.90
12578;DHT22;6354;51.026;8.968;2023-03-01T03:03:21;-1.70;99.90
12578;DHT22;6354;51.026;8.968;2023-03-01T03:05:49;-1.70;99.90
12578;DHT22;6354;51.026;8.968;2023-03-01T03:08:17;-1.70;99.90
12578;DHT22;6354;51.026;8.968;2023-03-01T03:10:50;-1.70;99.90
12578;DHT22;6354;51.026;8.968;2023-03-01T03:13:19;-1.70;99.90
12578;DHT22;6354;51.026;8.968;2023-03-01T03:15:48;-1.70;99.90
12578;DHT22;6354;51.026;8.968;2023-03-01T03:18:18;-1.70;99.90
12578;DHT22;6354;51.026;8.968;2023-03-01T03:20:46;-1.70;99.90
12578;DHT22;6354;51.026;8.968;2023-03-01T03:23:19;-1.70;99.90
12578;DHT22;6354;51.026;8.968;2023-03-01T03:25:48;-1.70;99.90
12578;DHT22;6354;51.026;8.968;2023-03-01T03:28:17;-1.80;99.90
12578;DHT22;6354;51.026;8.968;2023-03-01T03:30:45;-1.70;99.90
12578;DHT22;6354;51.026;8.968;2023-03-01T03:33:13;-1.70;99.90
12578;DHT22;6354;51.026;8.968;2023-03-01T03:35:45;-1.80;99.90
12578;DHT22;6354;51.026;8.968;2023-03-01T03:38:15;-1.80;99.90
12578;DHT22;6354;51.026;8.968;2023-03-01T03:40:45;-1.80;99.90
12578;DHT22;6354;51.026;8.968;2023-03-01T03:43:15;-1.80;99.90
12578;DHT22;6354;51.026;8.968;2023-03-01T03:45:44;-1.80;99.90
12578;DHT22;6354;51.026;8.968;2023-03-01T03:48:13;-1.80;99.90
12578;DHT22;6354;51.026;8.968;2023-03-01T03:50:47;-1.80;99.90
12578;DHT22;6354;51.026;8.968;2023-03-01T03:53:16;-1.90;99.90
12578;DHT22;6354;51.026;8.968;2023-03-01T03:55:44;-1.90;99.90
12578;DHT22;6354;51.026;8.968;2023-03-01T03:58:16;-1.90;99.90
12578;DHT22;6354;51.026;8.968;2023-03-01T04:00:48;-1.90;99.90
12578;DHT22;6354;51.026;8.968;2023-03-01T04:03:18;-1.90;99.90
12578;DHT22;6354;51.026;8.968;2023-03-01T04:05:48;-1.90;99.90
12578;DHT22;6354;51.026;8.968;2023-03-01T04:08:17;-2.00;99.90
12578;DHT22;6354;51.026;8.968;2023-03-01T04:10:48;-2.00;99.90
12578;DHT22;6354;51.026;8.968;2023-03-01T04:13:18;-2.10;99.90
12578;DHT22;6354;51.026;8.968;2023-03-01T04:15:48;-2.10;99.90
12578;DHT22;6354;51.026;8.968;2023-03-01T04:18:18;-2.10;99.90
12578;DHT22;6354;51.026;8.968;2023-03-01T04:20:47;-2.20;99.90
12578;DHT22;6354;51.026;8.968;2023-03-01T04:23:19;-2.20;99.90
12578;DHT22;6354;51.026;8.968;2023-03-01T04:25:49;-2.20;99.90
12578;DHT22;6354;51.026;8.968;2023-03-01T04:28:20;-2.20;99.90
12578;DHT22;6354;51.026;8.968;2023-03-01T04:30:48;-2.10;99.90
12578;DHT22;6354;51.026;8.968;2023-03-01T04:33:16;-2.10;99.90
12578;DHT22;6354;51.026;8.968;2023-03-01T04:35:45;-2.10;99.90
12578;DHT22;6354;51.026;8.968;2023-03-01T04:38:18;-2.10;99.90
12578;DHT22;6354;51.026;8.968;2023-03-01T04:40:47;-2.10;99.90
12578;DHT22;6354;51.026;8.968;2023-03-01T04:43:15;-2.20;99.90
12578;DHT22;6354;51.026;8.968;2023-03-01T04:45:44;-2.20;99.90
12578;DHT22;6354;51.026;8.968;2023-03-01T04:48:12;-2.20;99.90
12578;DHT22;6354;51.026;8.968;2023-03-01T04:50:40;-2.20;99.90
12578;DHT22;6354;51.026;8.968;2023-03-01T04:53:08;-2.20;99.90
12578;DHT22;6354;51.026;8.968;2023-03-01T04:55:37;-2.20;99.90
12578;DHT22;6354;51.026;8.968;2023-03-01T04:58:05;-2.20;99.90
12578;DHT22;6354;51.026;8.968;2023-03-01T05:00:33;-2.20;99.90
12578;DHT22;6354;51.026;8.968;2023-03-01T05:03:01;-2.20;99.90
12578;DHT22;6354;51.026;8.968;2023-03-01T05:05:31;-2.20;99.90
12578;DHT22;6354;51.026;8.968;2023-03-01T05:08:01;-2.20;99.90
12578;DHT22;6354;51.026;8.968;2023-03-01T05:10:31;-2.20;99.90
12578;DHT22;6354;51.026;8.968;2023-03-01T05:13:02;-2.20;99.90
12578;DHT22;6354;51.026;8.968;2023-03-01T05:15:31;-2.20;99.90
12578;DHT22;6354;51.026;8.968;2023-03-01T05:18:00;-2.20;99.90
12578;DHT22;6354;51.026;8.968;2023-03-01T05:20:29;-2.30;99.90
12578;DHT22;6354;51.026;8.968;2023-03-01T05:22:59;-2.30;99.90
12578;DHT22;6354;51.026;8.968;2023-03-01T05:25:33;-2.40;99.90
12578;DHT22;6354;51.026;8.968;2023-03-01T05:28:03;-2.40;99.90
12578;DHT22;6354;51.026;8.968;2023-03-01T05:30:31;-2.30;99.90
12578;DHT22;6354;51.026;8.968;2023-03-01T05:33:00;-2.30;99.90
12578;DHT22;6354;51.026;8.968;2023-03-01T05:35:28;-2.30;99.90
12578;DHT22;6354;51.026;8.968;2023-03-01T05:37:59;-2.30;99.90
12578;DHT22;6354;51.026;8.968;2023-03-01T05:40:27;-2.30;99.90
12578;DHT22;6354;51.026;8.968;2023-03-01T05:42:56;-2.40;99.90
12578;DHT22;6354;51.026;8.968;2023-03-01T05:45:27;-2.40;99.90
12578;DHT22;6354;51.026;8.968;2023-03-01T05:47:55;-2.40;99.90
12578;DHT22;6354;51.026;8.968;2023-03-01T05:50:25;-2.40;99.90
12578;DHT22;6354;51.026;8.968;2023-03-01T05:52:58;-2.40;99.90
12578;DHT22;6354;51.026;8.968;2023-03-01T05:55:27;-2.40;99.90
12578;DHT22;6354;51.026;8.968;2023-03-01T05:57:55;-2.40;99.90
12578;DHT22;6354;51.026;8.968;2023-03-01T06:00:28;-2.40;99.90
12578;DHT22;6354;51.026;8.968;2023-03-01T06:02:58;-2.50;99.90
12578;DHT22;6354;51.026;8.968;2023-03-01T06:05:27;-2.40;99.90
12578;DHT22;6354;51.026;8.968;2023-03-01T06:07:57;-2.40;99.90
12578;DHT22;6354;51.026;8.968;2023-03-01T06:10:26;-2.40;99.90
12578;DHT22;6354;51.026;8.968;2023-03-01T06:12:54;-2.40;99.90
12578;DHT22;6354;51.026;8.968;2023-03-01T06:15:22;-2.30;99.90
12578;DHT22;6354;51.026;8.968;2023-03-01T06:17:54;-2.30;99.90
12578;DHT22;6354;51.026;8.968;2023-03-01T06:20:27;-2.40;99.90
12578;DHT22;6354;51.026;8.968;2023-03-01T06:22:56;-2.40;99.90
12578;DHT22;6354;51.026;8.968;2023-03-01T06:25:26;-2.40;99.90
12578;DHT22;6354;51.026;8.968;2023-03-01T06:27:54;-2.30;99.90
12578;DHT22;6354;51.026;8.968;2023-03-01T06:30:24;-2.30;99.90
12578;DHT22;6354;51.026;8.968;2023-03-01T06:32:53;-2.30;99.90
12578;DHT22;6354;51.026;8.968;2023-03-01T06:35:28;-2.40;99.90
12578;DHT22;6354;51.026;8.968;2023-03-01T06:37:58;-2.30;99.90
12578;DHT22;6354;51.026;8.968;2023-03-01T06:40:26;-2.30;99.90
12578;DHT22;6354;51.026;8.968;2023-03-01T06:42:54;-2.30;99.90
12578;DHT22;6354;51.026;8.968;2023-03-01T06:45:23;-2.30;99.90
12578;DHT22;6354;51.026;8.968;2023-03-01T06:47:52;-2.30;99.90
12578;DHT22;6354;51.026;8.968;2023-03-01T06:50:20;-2.30;99.90
12578;DHT22;6354;51.026;8.968;2023-03-01T06:52:48;-2.20;99.90
12578;DHT22;6354;51.026;8.968;2023-03-01T06:55:23;-1.90;99.90
12578;DHT22;6354;51.026;8.968;2023-03-01T06:57:54;-1.50;99.90
12578;DHT22;6354;51.026;8.968;2023-03-01T07:00:23;-1.30;99.90
12578;DHT22;6354;51.026;8.968;2023-03-01T07:02:53;-1.20;99.90
12578;DHT22;6354;51.026;8.968;2023-03-01T07:05:22;-1.00;99.90
12578;DHT22;6354;51.026;8.968;2023-03-01T07:07:50;-0.90;99.90
12578;DHT22;6354;51.026;8.968;2023-03-01T07:10:18;-0.90;99.90
12578;DHT22;6354;51.026;8.968;2023-03-01T07:12:46;-0.90;99.90
12578;DHT22;6354;51.026;8.968;2023-03-01T07:15:14;-0.80;99.90
12578;DHT22;6354;51.026;8.968;2023-03-01T07:17:42;-0.60;99.90
12578;DHT22;6354;51.026;8.968;2023-03-01T07:20:12;-0.40;99.90
12578;DHT22;6354;51.026;8.968;2023-03-01T07:22:41;-0.20;99.90
12578;DHT22;6354;51.026;8.968;2023-03-01T07:25:10;0.00;99.90
12578;DHT22;6354;51.026;8.968;2023-03-01T07:27:38;0.20;99.90
12578;DHT22;6354;51.026;8.968;2023-03-01T07:30:07;0.40;99.90
12578;DHT22;6354;51.026;8.968;2023-03-01T07:32:35;0.50;99.90
12578;DHT22;6354;51.026;8.968;2023-03-01T07:35:03;0.60;99.90
12578;DHT22;6354;51.026;8.968;2023-03-01T07:37:33;0.80;99.90
12578;DHT22;6354;51.026;8.968;2023-03-01T07:40:01;0.90;99.90
12578;DHT22;6354;51.026;8.968;2023-03-01T07:42:29;1.00;99.90
12578;DHT22;6354;51.026;8.968;2023-03-01T07:44:57;1.20;99.90
12578;DHT22;6354;51.026;8.968;2023-03-01T07:47:25;1.40;99.90
12578;DHT22;6354;51.026;8.968;2023-03-01T07:49:53;1.50;99.90
12578;DHT22;6354;51.026;8.968;2023-03-01T07:52:21;1.70;99.90
12578;DHT22;6354;51.026;8.968;2023-03-01T07:54:50;1.80;99.90
12578;DHT22;6354;51.026;8.968;2023-03-01T07:57:18;1.90;99.90
12578;DHT22;6354;51.026;8.968;2023-03-01T07:59:46;2.10;99.90
12578;DHT22;6354;51.026;8.968;2023-03-01T08:02:14;2.20;99.90
12578;DHT22;6354;51.026;8.968;2023-03-01T08:04:42;2.00;99.90
12578;DHT22;6354;51.026;8.968;2023-03-01T08:07:10;2.00;99.90
12578;DHT22;6354;51.026;8.968;2023-03-01T08:09:38;1.90;99.90
12578;DHT22;6354;51.026;8.968;2023-03-01T08:12:08;1.80;99.90
12578;DHT22;6354;51.026;8.968;2023-03-01T08:14:35;1.80;99.90
12578;DHT22;6354;51.026;8.968;2023-03-01T08:17:03;1.80;99.90
12578;DHT22;6354;51.026;8.968;2023-03-01T08:19:32;1.80;99.90
12578;DHT22;6354;51.026;8.968;2023-03-01T08:22:01;1.90;99.90
12578;DHT22;6354;51.026;8.968;2023-03-01T08:24:29;1.90;99.90
12578;DHT22;6354;51.026;8.968;2023-03-01T08:26:57;2.00;99.90
12578;DHT22;6354;51.026;8.968;2023-03-01T08:29:27;2.10;99.90
12578;DHT22;6354;51.026;8.968;2023-03-01T08:31:55;2.00;99.90
12578;DHT22;6354;51.026;8.968;2023-03-01T08:34:23;2.00;99.90
12578;DHT22;6354;51.026;8.968;2023-03-01T08:36:51;2.10;99.90
12578;DHT22;6354;51.026;8.968;2023-03-01T08:39:20;2.10;99.90
12578;DHT22;6354;51.026;8.968;2023-03-01T08:41:48;2.10;99.90
12578;DHT22;6354;51.026;8.968;2023-03-01T08:44:16;2.20;99.90
12578;DHT22;6354;51.026;8.968;2023-03-01T08:46:46;2.30;99.90
12578;DHT22;6354;51.026;8.968;2023-03-01T08:49:16;2.20;99.90
12578;DHT22;6354;51.026;8.968;2023-03-01T08:51:44;2.20;99.90
12578;DHT22;6354;51.026;8.968;2023-03-01T08:54:14;2.20;99.90
12578;DHT22;6354;51.026;8.968;2023-03-01T08:56:42;2.30;99.90
12578;DHT22;6354;51.026;8.968;2023-03-01T08:59:11;2.40;99.90
12578;DHT22;6354;51.026;8.968;2023-03-01T09:01:40;2.40;99.90
12578;DHT22;6354;51.026;8.968;2023-03-01T09:04:11;2.40;99.90
12578;DHT22;6354;51.026;8.968;2023-03-01T09:06:39;2.50;99.90
12578;DHT22;6354;51.026;8.968;2023-03-01T09:09:13;2.40;99.90
12578;DHT22;6354;51.026;8.968;2023-03-01T09:11:43;2.50;99.90
12578;DHT22;6354;51.026;8.968;2023-03-01T09:14:13;2.50;99.90
12578;DHT22;6354;51.026;8.968;2023-03-01T09:16:42;2.60;99.90
12578;DHT22;6354;51.026;8.968;2023-03-01T09:19:11;2.50;99.90
12578;DHT22;6354;51.026;8.968;2023-03-01T09:21:39;2.50;99.90
12578;DHT22;6354;51.026;8.968;2023-03-01T09:24:13;2.60;99.90
12578;DHT22;6354;51.026;8.968;2023-03-01T09:26:42;2.70;99.90
12578;DHT22;6354;51.026;8.968;2023-03-01T09:29:15;2.70;99.90
12578;DHT22;6354;51.026;8.968;2023-03-01T09:31:43;2.70;99.90
12578;DHT22;6354;51.026;8.968;2023-03-01T09:34:12;2.60;99.90
12578;DHT22;6354;51.026;8.968;2023-03-01T09:36:42;2.70;99.90
12578;DHT22;6354;51.026;8.968;2023-03-01T09:39:10;2.80;99.90
12578;DHT22;6354;51.026;8.968;2023-03-01T09:41:45;2.90;99.90
12578;DHT22;6354;51.026;8.968;2023-03-01T09:44:21;2.80;99.90
12578;DHT22;6354;51.026;8.968;2023-03-01T09:46:51;2.80;99.90
12578;DHT22;6354;51.026;8.968;2023-03-01T09:49:23;2.90;99.90
12578;DHT22;6354;51.026;8.968;2023-03-01T09:51:59;2.90;99.90
12578;DHT22;6354;51.026;8.968;2023-03-01T09:54:28;2.80;99.90
12578;DHT22;6354;51.026;8.968;2023-03-01T09:57:13;2.80;99.90
12578;DHT22;6354;51.026;8.968;2023-03-01T09:59:59;2.90;99.90
12578;DHT22;6354;51.026;8.968;2023-03-01T10:02:38;3.00;99.90
12578;DHT22;6354;51.026;8.968;2023-03-01T10:05:27;3.00;99.90
12578;DHT22;6354;51.026;8.968;2023-03-01T10:10:48;3.00;99.90
12578;DHT22;6354;51.026;8.968;2023-03-01T10:13:21;3.00;99.90
12578;DHT22;6354;51.026;8.968;2023-03-01T10:15:54;3.20;99.90
12578;DHT22;6354;51.026;8.968;2023-03-01T10:18:26;3.20;99.90
12578;DHT22;6354;51.026;8.968;2023-03-01T10:20:59;3.10;99.90
12578;DHT22;6354;51.026;8.968;2023-03-01T10:23:30;3.10;99.90
12578;DHT22;6354;51.026;8.968;2023-03-01T10:26:09;3.20;99.90
12578;DHT22;6354;51.026;8.968;2023-03-01T10:28:47;3.20;99.90
12578;DHT22;6354;51.026;8.968;2023-03-01T10:31:20;3.20;99.90
12578;DHT22;6354;51.026;8.968;2023-03-01T10:33:49;3.20;99.90
12578;DHT22;6354;51.026;8.968;2023-03-01T10:36:23;3.30;99.90
12578;DHT22;6354;51.026;8.968;2023-03-01T10:38:53;3.40;99.90
12578;DHT22;6354;51.026;8.968;2023-03-01T10:41:22;3.40;99.90
12578;DHT22;6354;51.026;8.968;2023-03-01T10:43:53;3.50;99.90
12578;DHT22;6354;51.026;8.968;2023-03-01T10:46:26;3.50;99.90
12578;DHT22;6354;51.026;8.968;2023-03-01T10:49:14;3.50;99.90
12578;DHT22;6354;51.026;8.968;2023-03-01T10:51:45;3.60;99.90
12578;DHT22;6354;51.026;8.968;2023-03-01T10:54:19;3.50;99.90
12578;DHT22;6354;51.026;8.968;2023-03-01T10:56:49;3.60;99.90
12578;DHT22;6354;51.026;8.968;2023-03-01T10:59:25;3.60;99.90
12578;DHT22;6354;51.026;8.968;2023-03-01T11:02:15;3.60;99.90
12578;DHT22;6354;51.026;8.968;2023-03-01T11:04:59;3.70;99.90
12578;DHT22;6354;51.026;8.968;2023-03-01T11:07:29;3.80;99.90
12578;DHT22;6354;51.026;8.968;2023-03-01T11:09:57;3.90;99.90
12578;DHT22;6354;51.026;8.968;2023-03-01T11:12:25;4.00;99.90
12578;DHT22;6354;51.026;8.968;2023-03-01T11:14:57;3.90;99.90
12578;DHT22;6354;51.026;8.968;2023-03-01T11:17:27;3.90;99.90
12578;DHT22;6354;51.026;8.968;2023-03-01T11:20:07;3.90;99.90
12578;DHT22;6354;51.026;8.968;2023-03-01T11:22:46;3.90;99.90
12578;DHT22;6354;51.026;8.968;2023-03-01T11:25:18;4.10;99.90
12578;DHT22;6354;51.026;8.968;2023-03-01T11:27:47;4.00;99.90
12578;DHT22;6354;51.026;8.968;2023-03-01T11:30:19;4.10;99.90
12578;DHT22;6354;51.026;8.968;2023-03-01T11:32:57;4.10;99.90
12578;DHT22;6354;51.026;8.968;2023-03-01T11:35:29;4.10;99.90
12578;DHT22;6354;51.026;8.968;2023-03-01T11:38:11;4.30;99.90
12578;DHT22;6354;51.026;8.968;2023-03-01T11:40:44;4.10;99.90
12578;DHT22;6354;51.026;8.968;2023-03-01T11:43:19;4.10;99.90
12578;DHT22;6354;51.026;8.968;2023-03-01T11:46:03;4.20;99.90
12578;DHT22;6354;51.026;8.968;2023-03-01T11:48:49;4.30;99.90
12578;DHT22;6354;51.026;8.968;2023-03-01T11:51:25;4.40;99.90
12578;DHT22;6354;51.026;8.968;2023-03-01T11:54:09;4.40;99.90
12578;DHT22;6354;51.026;8.968;2023-03-01T11:56:45;4.50;99.90
12578;DHT22;6354;51.026;8.968;2023-03-01T12:05:52;4.60;99.90
12578;DHT22;6354;51.026;8.968;2023-03-01T12:08:31;4.60;99.90
12578;DHT22;6354;51.026;8.968;2023-03-01T12:11:10;4.70;99.90
12578;DHT22;6354;51.026;8.968;2023-03-01T12:14:06;4.60;99.90
12578;DHT22;6354;51.026;8.968;2023-03-01T12:16:53;4.70;99.90
12578;DHT22;6354;51.026;8.968;2023-03-01T12:19:33;4.70;99.90
12578;DHT22;6354;51.026;8.968;2023-03-01T12:22:21;4.80;99.90
12578;DHT22;6354;51.026;8.968;2023-03-01T12:25:04;4.60;99.90
12578;DHT22;6354;51.026;8.968;2023-03-01T12:27:45;4.70;99.90
12578;DHT22;6354;51.026;8.968;2023-03-01T12:30:28;4.70;99.90
12578;DHT22;6354;51.026;8.968;2023-03-01T12:33:08;4.70;99.90
12578;DHT22;6354;51.026;8.968;2023-03-01T12:36:02;4.70;99.90
12578;DHT22;6354;51.026;8.968;2023-03-01T12:38:36;4.80;99.90
12578;DHT22;6354;51.026;8.968;2023-03-01T12:41:19;4.80;99.90
12578;DHT22;6354;51.026;8.968;2023-03-01T12:44:01;4.90;99.90
12578;DHT22;6354;51.026;8.968;2023-03-01T12:46:45;5.00;99.90
12578;DHT22;6354;51.026;8.968;2023-03-01T12:49:23;5.00;99.90
12578;DHT22;6354;51.026;8.968;2023-03-01T12:51:57;5.10;99.90
12578;DHT22;6354;51.026;8.968;2023-03-01T12:54:29;5.00;99.90
12578;DHT22;6354;51.026;8.968;2023-03-01T12:57:12;5.00;99.90
12578;DHT22;6354;51.026;8.968;2023-03-01T12:59:51;4.90;99.90
12578;DHT22;6354;51.026;8.968;2023-03-01T13:02:27;4.90;99.90
12578;DHT22;6354;51.026;8.968;2023-03-01T13:05:14;5.00;99.90
12578;DHT22;6354;51.026;8.968;2023-03-01T13:07:53;5.00;99.90
12578;DHT22;6354;51.026;8.968;2023-03-01T13:10:28;5.20;99.90
12578;DHT22;6354;51.026;8.968;2023-03-01T13:13:14;5.20;99.90
12578;DHT22;6354;51.026;8.968;2023-03-01T13:15:47;5.30;99.90
12578;DHT22;6354;51.026;8.968;2023-03-01T13:18:29;5.10;99.90
12578;DHT22;6354;51.026;8.968;2023-03-01T13:21:00;5.10;99.90
12578;DHT22;6354;51.026;8.968;2023-03-01T13:23:37;5.20;99.90
12578;DHT22;6354;51.026;8.968;2023-03-01T13:26:09;5.10;99.90
12578;DHT22;6354;51.026;8.968;2023-03-01T13:28:47;5.10;99.90
12578;DHT22;6354;51.026;8.968;2023-03-01T13:34:42;5.20;99.90
12578;DHT22;6354;51.026;8.968;2023-03-01T13:37:19;5.30;99.90
12578;DHT22;6354;51.026;8.968;2023-03-01T13:39:47;5.20;99.90
12578;DHT22;6354;51.026;8.968;2023-03-01T13:42:33;5.30;99.90
12578;DHT22;6354;51.026;8.968;2023-03-01T13:45:01;5.30;99.90
12578;DHT22;6354;51.026;8.968;2023-03-01T13:47:30;5.30;99.90
12578;DHT22;6354;51.026;8.968;2023-03-01T13:50:03;5.30;99.90
12578;DHT22;6354;51.026;8.968;2023-03-01T13:52:38;5.40;99.90
12578;DHT22;6354;51.026;8.968;2023-03-01T13:55:17;5.40;99.90
12578;DHT22;6354;51.026;8.968;2023-03-01T13:57:48;5.40;99.90
12578;DHT22;6354;51.026;8.968;2023-03-01T14:00:38;5.50;99.90
12578;DHT22;6354;51.026;8.968;2023-03-01T14:03:12;5.50;99.90
12578;DHT22;6354;51.026;8.968;2023-03-01T14:05:44;5.50;99.90
12578;DHT22;6354;51.026;8.968;2023-03-01T14:08:39;5.60;99.90
12578;DHT22;6354;51.026;8.968;2023-03-01T14:11:30;5.70;99.90
12578;DHT22;6354;51.026;8.968;2023-03-01T14:14:13;5.60;99.90
12578;DHT22;6354;51.026;8.968;2023-03-01T14:16:50;5.60;99.90
12578;DHT22;6354;51.026;8.968;2023-03-01T14:19:24;5.50;99.90
12578;DHT22;6354;51.026;8.968;2023-03-01T14:22:10;5.40;99.90
12578;DHT22;6354;51.026;8.968;2023-03-01T14:24:46;5.40;99.90
12578;DHT22;6354;51.026;8.968;2023-03-01T14:27:16;5.40;99.90
12578;DHT22;6354;51.026;8.968;2023-03-01T14:29:54;5.50;99.90
12578;DHT22;6354;51.026;8.968;2023-03-01T14:32:25;5.50;99.90
12578;DHT22;6354;51.026;8.968;2023-03-01T14:34:53;5.50;99.90
12578;DHT22;6354;51.026;8.968;2023-03-01T14:37:26;5.60;99.90
12578;DHT22;6354;51.026;8.968;2023-03-01T14:39:55;5.50;99.90
12578;DHT22;6354;51.026;8.968;2023-03-01T14:42:26;5.40;99.90
12578;DHT22;6354;51.026;8.968;2023-03-01T14:44:57;5.40;99.90
12578;DHT22;6354;51.026;8.968;2023-03-01T14:47:28;5.40;99.90
12578;DHT22;6354;51.026;8.968;2023-03-01T14:49:59;5.50;99.90
12578;DHT22;6354;51.026;8.968;2023-03-01T14:52:37;5.50;99.90
12578;DHT22;6354;51.026;8.968;2023-03-01T14:55:13;5.40;99.90
12578;DHT22;6354;51.026;8.968;2023-03-01T14:57:44;5.50;99.90
12578;DHT22;6354;51.026;8.968;2023-03-01T15:00:17;5.40;99.90
12578;DHT22;6354;51.026;8.968;2023-03-01T15:02:47;5.40;99.90
12578;DHT22;6354;51.026;8.968;2023-03-01T15:05:18;5.40;99.90
12578;DHT22;6354;51.026;8.968;2023-03-01T15:07:51;5.40;99.90
12578;DHT22;6354;51.026;8.968;2023-03-01T15:10:21;5.40;99.90
12578;DHT22;6354;51.026;8.968;2023-03-01T15:12:50;5.50;99.90
12578;DHT22;6354;51.026;8.968;2023-03-01T15:15:38;5.40;99.90
12578;DHT22;6354;51.026;8.968;2023-03-01T15:18:15;5.30;99.90
12578;DHT22;6354;51.026;8.968;2023-03-01T15:20:45;5.30;99.90
12578;DHT22;6354;51.026;8.968;2023-03-01T15:23:21;5.40;99.90
12578;DHT22;6354;51.026;8.968;2023-03-01T15:25:51;5.40;99.90
12578;DHT22;6354;51.026;8.968;2023-03-01T15:28:25;5.40;99.90
12578;DHT22;6354;51.026;8.968;2023-03-01T15:31:00;5.40;99.90
12578;DHT22;6354;51.026;8.968;2023-03-01T15:33:32;5.30;99.90
12578;DHT22;6354;51.026;8.968;2023-03-01T15:36:02;5.30;99.90
12578;DHT22;6354;51.026;8.968;2023-03-01T15:38:36;5.30;99.90
12578;DHT22;6354;51.026;8.968;2023-03-01T15:41:23;5.30;99.90
12578;DHT22;6354;51.026;8.968;2023-03-01T15:43:53;5.40;99.90
12578;DHT22;6354;51.026;8.968;2023-03-01T15:46:28;5.30;99.90
12578;DHT22;6354;51.026;8.968;2023-03-01T15:49:00;5.30;99.90
12578;DHT22;6354;51.026;8.968;2023-03-01T15:51:34;5.20;99.90
12578;DHT22;6354;51.026;8.968;2023-03-01T15:54:06;5.10;99.90
12578;DHT22;6354;51.026;8.968;2023-03-01T15:56:34;5.10;99.90
12578;DHT22;6354;51.026;8.968;2023-03-01T15:59:03;5.10;99.90
12578;DHT22;6354;51.026;8.968;2023-03-01T16:01:31;5.10;99.90
12578;DHT22;6354;51.026;8.968;2023-03-01T16:04:01;5.10;99.90
12578;DHT22;6354;51.026;8.968;2023-03-01T16:06:29;5.10;99.90
12578;DHT22;6354;51.026;8.968;2023-03-01T16:08:57;5.00;99.90
12578;DHT22;6354;51.026;8.968;2023-03-01T16:11:27;5.00;99.90
12578;DHT22;6354;51.026;8.968;2023-03-01T16:13:55;5.10;99.90
12578;DHT22;6354;51.026;8.968;2023-03-01T16:16:23;5.00;99.90
12578;DHT22;6354;51.026;8.968;2023-03-01T16:18:51;5.10;99.90
12578;DHT22;6354;51.026;8.968;2023-03-01T16:21:23;5.00;99.90
12578;DHT22;6354;51.026;8.968;2023-03-01T16:23:52;4.90;99.90
12578;DHT22;6354;51.026;8.968;2023-03-01T16:26:20;4.90;99.90
12578;DHT22;6354;51.026;8.968;2023-03-01T16:28:49;4.90;99.90
12578;DHT22;6354;51.026;8.968;2023-03-01T16:31:18;4.80;99.90
12578;DHT22;6354;51.026;8.968;2023-03-01T16:33:47;4.80;99.90
12578;DHT22;6354;51.026;8.968;2023-03-01T16:36:20;4.80;99.90